Weather at Lozen Heliport

Public forecast

Using degrees Celsius for public forecast. Weather courtesy of forecast.io.

Closest aviation weather report (METAR) to Lozen Heliport

Closest report is Sofia Airport, 5.9 nm (11.0 km) NW.

2024/05/30 13:30 (retrieved 16 minutes ago)

LBSF 301330Z 20006KT 140V280 9999 FEW040TCU SCT085 22/12 Q1009 NOSIG

Closest aviation forecast (TAF) to Lozen Heliport

Closest forecast is Sofia Airport, 5.9 nm (11.0 km) NW.

2024/05/30 12:18 (retrieved 1 hour ago)

TAF LBSF 301100Z 3012/3112 32010KT 9999 SCT040 BKN060 TEMPO 3012/3017 VRB16G26KT 5000 TSRA SCT030CB OVC050 BECMG 3017/3019 VRB04KT TEMPO 3100/3105 3000 BR SCT010 BECMG 3108/3110 22010KT